Terminal Aerodrome Forecast
Issued by NWS

Home | Current Version | Previous Version | Text Only | Print | Product List | Glossary On
Versions: 1 2 3 4 5 6 7 8 9 10 11 12 13 14 15 16
000
FTUS43 KPAH 150520
TAFOWB
TAF
KOWB 150520Z 1506/1606 19009KT P6SM SKC WS020/21040KT
     FM151300 22011KT P6SM VCTS BKN060CB
     FM151500 29014G22KT P6SM -SHRA BKN020
     FM152000 32013G21KT P6SM SCT040 BKN100=

USA.gov is the U.S. government's official web portal to all federal, state and local government web resources and services.